Time;durP1;ratioP1;P1;durP2;ratioP2;P2;SDS_P1;SDS_P2;PMS_P1;PMS_P2;Temp;Humidity;BMP_temperature;BMP_pressure;BME280_temperature;BME280_humidity;BME280_pressure;Samples;Min_cycle;Max_cycle;Signal;HPM_P1;HPM_P2
2022/06/05 00:01:33;;;;;;;5.77;4.10;;;;;;;;;;5035768;28;20657;-66
2022/06/05 00:04:17;;;;;;;4.80;3.77;;;;;;;;;;5035952;28;20269;-64
2022/06/05 00:06:49;;;;;;;4.37;3.97;;;;;;;;;;5035792;28;20233;-64
2022/06/05 00:09:34;;;;;;;4.53;4.00;;;;;;;;;;5053750;28;20281;-64
2022/06/05 00:12:11;;;;;;;4.00;3.70;;;;;;;;;;5053743;28;20185;-66
2022/06/05 00:14:38;;;;;;;4.40;4.00;;;;;;;;;;5035479;28;20645;-63
2022/06/05 00:17:09;;;;;;;4.70;4.30;;;;;;;;;;5053412;28;20207;-64
2022/06/05 00:19:35;;;;;;;6.97;4.00;;;;;;;;;;5035393;28;20571;-64
2022/06/05 00:22:02;;;;;;;4.80;4.10;;;;;;;;;;5053121;28;20179;-64
2022/06/05 00:24:28;;;;;;;4.37;4.03;;;;;;;;;;5035451;28;20174;-64
2022/06/05 00:27:03;;;;;;;5.87;4.30;;;;;;;;;;5035408;28;20186;-63
2022/06/05 00:29:48;;;;;;;5.83;4.30;;;;;;;;;;5067550;22;20228;-65
2022/06/05 00:32:33;;;;;;;5.07;4.23;;;;;;;;;;5059655;28;20188;-65
2022/06/05 00:34:59;;;;;;;4.57;4.13;;;;;;;;;;5059098;28;20173;-64
2022/06/05 00:37:34;;;;;;;5.10;4.60;;;;;;;;;;5077033;28;20209;-64
2022/06/05 00:40:13;;;;;;;4.63;4.23;;;;;;;;;;5057259;28;20159;-65
2022/06/05 00:42:39;;;;;;;6.57;4.00;;;;;;;;;;5057255;28;20205;-65
2022/06/05 00:45:09;;;;;;;4.73;4.27;;;;;;;;;;5056763;28;20654;-65
2022/06/05 00:47:36;;;;;;;6.90;4.40;;;;;;;;;;5038818;28;20277;-64
2022/06/05 00:50:05;;;;;;;5.70;4.50;;;;;;;;;;5038953;28;20184;-64
2022/06/05 00:52:33;;;;;;;4.63;4.13;;;;;;;;;;5056857;28;20187;-65
2022/06/05 00:54:59;;;;;;;6.53;4.10;;;;;;;;;;5056861;28;20185;-65
2022/06/05 00:57:27;;;;;;;4.70;4.30;;;;;;;;;;5056665;28;20206;-64
2022/06/05 00:59:54;;;;;;;5.40;4.90;;;;;;;;;;5056413;28;20217;-64
2022/06/05 01:02:20;;;;;;;4.53;4.13;;;;;;;;;;5056763;28;20183;-65
2022/06/05 01:04:49;;;;;;;7.87;4.63;;;;;;;;;;5038567;28;20191;-65
2022/06/05 01:07:15;;;;;;;6.47;4.30;;;;;;;;;;5057008;28;20257;-65
2022/06/05 01:09:42;;;;;;;4.90;4.37;;;;;;;;;;5038665;28;20567;-65
2022/06/05 01:12:17;;;;;;;4.77;4.37;;;;;;;;;;5038446;28;20275;-65
2022/06/05 01:14:43;;;;;;;4.90;4.40;;;;;;;;;;5056502;28;20210;-65
2022/06/05 01:17:12;;;;;;;5.93;4.37;;;;;;;;;;5038296;28;20249;-65
2022/06/05 01:19:41;;;;;;;5.23;4.73;;;;;;;;;;5056463;28;20225;-64
2022/06/05 01:22:16;;;;;;;5.07;4.60;;;;;;;;;;5056606;28;20205;-65
2022/06/05 01:24:51;;;;;;;5.53;5.00;;;;;;;;;;5056986;28;20232;-64
2022/06/05 01:27:19;;;;;;;4.97;4.57;;;;;;;;;;5056551;28;20169;-65
2022/06/05 01:29:53;;;;;;;5.30;4.80;;;;;;;;;;5038561;28;20230;-64
2022/06/05 01:32:29;;;;;;;5.10;4.60;;;;;;;;;;5056736;28;20710;-65
2022/06/05 01:34:57;;;;;;;5.23;4.83;;;;;;;;;;5038065;28;20276;-64
2022/06/05 01:37:31;;;;;;;5.57;5.07;;;;;;;;;;5056160;28;20256;-66
2022/06/05 01:40:10;;;;;;;5.67;5.10;;;;;;;;;;5037203;28;20332;-64
2022/06/05 01:42:37;;;;;;;5.47;4.70;;;;;;;;;;5056019;28;20235;-64
2022/06/05 01:45:27;;;;;;;4.80;4.30;;;;;;;;;;5056012;28;20705;-64
2022/06/05 01:47:54;;;;;;;8.40;5.50;;;;;;;;;;5047869;28;20194;-64
2022/06/05 01:50:26;;;;;;;4.83;4.43;;;;;;;;;;5055812;28;20182;-65
2022/06/05 01:52:59;;;;;;;5.30;4.80;;;;;;;;;;5037694;28;20186;-64
2022/06/05 01:55:28;;;;;;;5.70;5.17;;;;;;;;;;5055644;28;20265;-64
2022/06/05 01:57:57;;;;;;;5.53;4.97;;;;;;;;;;5055473;28;20198;-64
2022/06/05 02:00:23;;;;;;;6.27;5.10;;;;;;;;;;5055389;28;20262;-64
2022/06/05 02:02:55;;;;;;;5.30;4.80;;;;;;;;;;5055710;28;20186;-65
2022/06/05 02:05:25;;;;;;;5.37;4.87;;;;;;;;;;5055370;28;20179;-65
2022/06/05 02:07:55;;;;;;;5.17;4.67;;;;;;;;;;5055251;28;20175;-64
2022/06/05 02:10:42;;;;;;;5.63;5.13;;;;;;;;;;5055655;28;20189;-67
2022/06/05 02:13:08;;;;;;;5.60;5.10;;;;;;;;;;5037889;28;20175;-66
2022/06/05 02:15:34;;;;;;;6.50;5.60;;;;;;;;;;5037688;28;20232;-64
2022/06/05 02:18:00;;;;;;;5.67;5.17;;;;;;;;;;5055866;28;20248;-64
2022/06/05 02:20:27;;;;;;;7.83;5.27;;;;;;;;;;5055054;28;20174;-64
2022/06/05 02:22:54;;;;;;;8.00;5.60;;;;;;;;;;5055138;28;20589;-63
2022/06/05 02:25:22;;;;;;;7.07;5.40;;;;;;;;;;5055095;28;20269;-65
2022/06/05 02:27:48;;;;;;;6.00;5.40;;;;;;;;;;5054855;28;20182;-65
2022/06/05 02:30:15;;;;;;;7.80;5.95;;;;;;;;;;5054648;28;20415;-67
2022/06/05 02:32:47;;;;;;;6.00;5.43;;;;;;;;;;5055100;28;20171;-65
2022/06/05 02:35:32;;;;;;;7.03;5.53;;;;;;;;;;5054747;28;20669;-65
2022/06/05 02:38:07;;;;;;;6.43;5.30;;;;;;;;;;5037105;28;20641;-65
2022/06/05 02:40:32;;;;;;;6.43;5.33;;;;;;;;;;5055017;28;20539;-65
2022/06/05 02:43:18;;;;;;;7.07;5.53;;;;;;;;;;5054745;28;20215;-66
2022/06/05 02:45:53;;;;;;;6.50;5.83;;;;;;;;;;5054806;28;20654;-66
2022/06/05 02:48:19;;;;;;;7.50;6.10;;;;;;;;;;5054552;28;20570;-65
2022/06/05 02:50:51;;;;;;;6.63;6.03;;;;;;;;;;5036749;28;20178;-65
2022/06/05 02:53:17;;;;;;;7.10;6.40;;;;;;;;;;5054475;28;20211;-66
2022/06/05 02:55:43;;;;;;;7.10;6.40;;;;;;;;;;5054367;28;20275;-65
2022/06/05 02:58:10;;;;;;;7.47;6.53;;;;;;;;;;5054316;28;20620;-65
2022/06/05 03:00:37;;;;;;;7.10;6.37;;;;;;;;;;5054426;28;20182;-66
2022/06/05 03:05:47;;;;;;;8.03;6.87;;;;;;;;;;5054665;28;20255;-65
2022/06/05 03:08:14;;;;;;;7.23;6.53;;;;;;;;;;5054362;28;20202;-65
2022/06/05 03:10:41;;;;;;;7.63;6.93;;;;;;;;;;5054181;28;20189;-66
2022/06/05 03:13:08;;;;;;;7.70;6.90;;;;;;;;;;5054117;28;20175;-66
2022/06/05 03:15:34;;;;;;;7.60;6.80;;;;;;;;;;5053991;28;20214;-65
2022/06/05 03:18:00;;;;;;;12.60;6.80;;;;;;;;;;5053917;28;20230;-65
2022/06/05 03:20:26;;;;;;;7.10;6.50;;;;;;;;;;5036062;28;20182;-65
2022/06/05 03:22:52;;;;;;;7.17;6.47;;;;;;;;;;5054182;28;20224;-65
2022/06/05 03:25:19;;;;;;;8.23;6.97;;;;;;;;;;5036021;28;20179;-66
2022/06/05 03:27:45;;;;;;;8.33;6.63;;;;;;;;;;5053536;28;20187;-65
2022/06/05 03:30:12;;;;;;;8.00;7.20;;;;;;;;;;5053673;28;20185;-65
2022/06/05 03:32:37;;;;;;;7.60;6.80;;;;;;;;;;5035956;28;20583;-66
2022/06/05 03:35:05;;;;;;;9.80;6.93;;;;;;;;;;5035726;28;20202;-66
2022/06/05 03:37:31;;;;;;;7.73;6.93;;;;;;;;;;5053494;28;20662;-65
2022/06/05 03:39:57;;;;;;;7.10;6.40;;;;;;;;;;5053473;28;20194;-65
2022/06/05 03:42:23;;;;;;;7.43;6.73;;;;;;;;;;5053524;28;20170;-66
2022/06/05 03:44:49;;;;;;;7.17;6.47;;;;;;;;;;5035497;28;20178;-66
2022/06/05 03:47:15;;;;;;;7.60;6.83;;;;;;;;;;5053760;28;20178;-66
2022/06/05 03:49:41;;;;;;;7.97;7.10;;;;;;;;;;5035476;28;20209;-65
2022/06/05 03:52:09;;;;;;;8.30;7.50;;;;;;;;;;5053517;28;20232;-65
2022/06/05 03:54:35;;;;;;;10.77;6.83;;;;;;;;;;5053497;28;20178;-65
2022/06/05 03:57:01;;;;;;;9.37;7.37;;;;;;;;;;5053260;28;20209;-65
2022/06/05 03:59:27;;;;;;;8.63;7.10;;;;;;;;;;5035505;28;20336;-66
2022/06/05 04:01:53;;;;;;;8.30;7.33;;;;;;;;;;5035550;28;20638;-66
2022/06/05 04:04:19;;;;;;;6.97;6.27;;;;;;;;;;5052628;28;20178;-65
2022/06/05 04:06:45;;;;;;;8.70;6.87;;;;;;;;;;5053151;28;20185;-64
2022/06/05 04:09:11;;;;;;;7.43;6.70;;;;;;;;;;5035264;28;20210;-65
2022/06/05 04:11:39;;;;;;;8.97;6.57;;;;;;;;;;5035184;28;20631;-66
2022/06/05 04:14:05;;;;;;;8.30;7.20;;;;;;;;;;5035999;28;20635;-66
2022/06/05 04:16:32;;;;;;;7.30;6.40;;;;;;;;;;5052995;28;20666;-66
2022/06/05 04:18:58;;;;;;;7.70;6.70;;;;;;;;;;5053120;28;20228;-65
2022/06/05 04:21:26;;;;;;;7.33;6.60;;;;;;;;;;5035134;28;20229;-65
2022/06/05 04:23:52;;;;;;;7.60;6.33;;;;;;;;;;5035222;28;20182;-65
2022/06/05 04:26:23;;;;;;;6.63;6.00;;;;;;;;;;5035100;28;20185;-66
2022/06/05 04:28:49;;;;;;;6.93;5.93;;;;;;;;;;5053151;28;20297;-65
2022/06/05 04:31:17;;;;;;;6.47;5.87;;;;;;;;;;5053314;28;20197;-65
2022/06/05 04:33:43;;;;;;;7.30;6.60;;;;;;;;;;5053272;28;20186;-65
2022/06/05 04:36:09;;;;;;;8.00;7.07;;;;;;;;;;5052916;28;20268;-65
2022/06/05 04:38:35;;;;;;;7.30;6.60;;;;;;;;;;5052821;28;20654;-65
2022/06/05 04:41:01;;;;;;;7.37;6.70;;;;;;;;;;5034974;28;20320;-66
2022/06/05 04:43:27;;;;;;;6.80;6.20;;;;;;;;;;5035275;28;20185;-66
2022/06/05 04:45:53;;;;;;;6.67;6.07;;;;;;;;;;5034945;28;20189;-65
2022/06/05 04:48:19;;;;;;;7.77;6.20;;;;;;;;;;5052895;28;20205;-65
2022/06/05 04:50:45;;;;;;;6.87;6.17;;;;;;;;;;5053176;28;20185;-65
2022/06/05 04:53:11;;;;;;;6.83;6.13;;;;;;;;;;5053320;28;20241;-65
2022/06/05 04:55:38;;;;;;;6.70;6.10;;;;;;;;;;5034886;28;20186;-65
2022/06/05 04:58:04;;;;;;;6.70;6.00;;;;;;;;;;5035103;28;20626;-65
2022/06/05 05:00:30;;;;;;;6.50;5.90;;;;;;;;;;5034966;28;20186;-66
2022/06/05 05:02:56;;;;;;;7.07;6.37;;;;;;;;;;5034840;28;20186;-66
2022/06/05 05:05:22;;;;;;;6.97;6.27;;;;;;;;;;5052723;28;20179;-65
2022/06/05 05:07:48;;;;;;;6.37;5.77;;;;;;;;;;5034630;28;20174;-65
2022/06/05 05:10:14;;;;;;;7.37;6.67;;;;;;;;;;5034801;28;20201;-65
2022/06/05 05:12:40;;;;;;;7.70;6.23;;;;;;;;;;5053101;28;20171;-65
2022/06/05 05:15:07;;;;;;;7.33;6.20;;;;;;;;;;5053606;28;20178;-65
2022/06/05 05:17:33;;;;;;;6.63;6.03;;;;;;;;;;5038297;28;20206;-65
2022/06/05 05:19:59;;;;;;;7.27;6.10;;;;;;;;;;5056516;28;20730;-65
2022/06/05 05:22:25;;;;;;;7.07;5.83;;;;;;;;;;5038408;28;20182;-66
2022/06/05 05:24:51;;;;;;;8.20;6.50;;;;;;;;;;5038301;28;20643;-65
2022/06/05 05:27:17;;;;;;;8.47;6.70;;;;;;;;;;5056152;28;20178;-65
2022/06/05 05:29:43;;;;;;;7.47;5.40;;;;;;;;;;5056033;28;20710;-67
2022/06/05 05:32:10;;;;;;;7.03;6.20;;;;;;;;;;5038136;28;20610;-65
2022/06/05 05:34:36;;;;;;;6.47;5.87;;;;;;;;;;5055936;28;20174;-65
2022/06/05 05:37:02;;;;;;;8.07;6.27;;;;;;;;;;5056497;28;20206;-65
2022/06/05 05:42:13;;;;;;;7.00;5.80;;;;;;;;;;5056164;28;20208;-65
2022/06/05 05:44:47;;;;;;;6.63;6.03;;;;;;;;;;5055956;28;20261;-65
2022/06/05 05:47:21;;;;;;;6.47;5.87;;;;;;;;;;5055723;28;20253;-66
2022/06/05 05:49:50;;;;;;;6.27;5.73;;;;;;;;;;5055723;28;20206;-66
2022/06/05 05:52:16;;;;;;;6.10;5.60;;;;;;;;;;5055556;28;20193;-65
2022/06/05 05:54:42;;;;;;;6.77;5.93;;;;;;;;;;5055543;28;20614;-66
2022/06/05 05:57:08;;;;;;;6.40;5.70;;;;;;;;;;5055749;28;20258;-65
2022/06/05 05:59:35;;;;;;;6.67;6.07;;;;;;;;;;5055602;28;20285;-65
2022/06/05 06:02:01;;;;;;;6.30;5.70;;;;;;;;;;5055803;28;20724;-65
2022/06/05 06:04:27;;;;;;;6.80;5.63;;;;;;;;;;5055672;28;20174;-66
2022/06/05 06:06:53;;;;;;;6.80;6.10;;;;;;;;;;5055880;28;20208;-65
2022/06/05 06:09:20;;;;;;;5.97;5.40;;;;;;;;;;5055179;28;20202;-65
2022/06/05 06:11:46;;;;;;;6.80;6.20;;;;;;;;;;5037328;28;20236;-65
2022/06/05 06:14:12;;;;;;;6.47;5.87;;;;;;;;;;5055238;28;20249;-65
2022/06/05 06:16:37;;;;;;;6.60;6.00;;;;;;;;;;5037269;28;20776;-65
2022/06/05 06:19:04;;;;;;;8.03;6.30;;;;;;;;;;5055218;28;20209;-65
2022/06/05 06:21:30;;;;;;;6.50;5.90;;;;;;;;;;5055213;28;20175;-66
2022/06/05 06:23:56;;;;;;;7.87;6.40;;;;;;;;;;5055202;28;20713;-65
2022/06/05 06:26:22;;;;;;;6.07;5.57;;;;;;;;;;5054702;28;20190;-65
2022/06/05 06:28:48;;;;;;;6.50;5.90;;;;;;;;;;5054602;28;20272;-65
2022/06/05 06:31:15;;;;;;;6.73;5.70;;;;;;;;;;5037089;28;20622;-66
2022/06/05 06:33:41;;;;;;;6.00;5.50;;;;;;;;;;5037065;28;20178;-66
2022/06/05 06:36:10;;;;;;;6.43;5.83;;;;;;;;;;5037057;28;20207;-66
2022/06/05 06:38:36;;;;;;;5.73;5.13;;;;;;;;;;5054870;28;20198;-65
2022/06/05 06:41:04;;;;;;;6.07;5.37;;;;;;;;;;5054867;28;20224;-66
2022/06/05 06:43:31;;;;;;;5.43;5.03;;;;;;;;;;5054998;28;20546;-67
2022/06/05 06:45:57;;;;;;;8.50;5.70;;;;;;;;;;5054808;28;20201;-65
2022/06/05 06:48:23;;;;;;;6.83;5.43;;;;;;;;;;5036717;28;20670;-65
2022/06/05 06:50:49;;;;;;;5.67;5.17;;;;;;;;;;5036620;28;20297;-65
2022/06/05 06:53:15;;;;;;;6.80;5.47;;;;;;;;;;5054633;28;20257;-65
2022/06/05 06:55:41;;;;;;;5.23;4.83;;;;;;;;;;5036645;28;20179;-66
2022/06/05 06:58:07;;;;;;;6.83;5.40;;;;;;;;;;5054234;28;20256;-65
2022/06/05 07:00:33;;;;;;;6.60;5.70;;;;;;;;;;5036673;28;20185;-65
2022/06/05 07:02:59;;;;;;;6.10;5.60;;;;;;;;;;5036452;28;20179;-66
2022/06/05 07:05:25;;;;;;;6.93;5.53;;;;;;;;;;5054310;28;20206;-65
2022/06/05 07:07:51;;;;;;;6.30;5.43;;;;;;;;;;5054496;28;20170;-65
2022/06/05 07:10:17;;;;;;;5.83;5.23;;;;;;;;;;5036560;28;20278;-66
2022/06/05 07:12:43;;;;;;;7.23;5.63;;;;;;;;;;5054250;28;20555;-65
2022/06/05 07:15:09;;;;;;;7.50;5.63;;;;;;;;;;5054633;28;20224;-65
2022/06/05 07:17:35;;;;;;;5.73;5.23;;;;;;;;;;5054376;28;20225;-65
2022/06/05 07:20:02;;;;;;;6.27;5.60;;;;;;;;;;5054918;28;20658;-66
2022/06/05 07:22:28;;;;;;;6.30;5.80;;;;;;;;;;5054477;28;20704;-65
2022/06/05 07:24:54;;;;;;;6.87;5.50;;;;;;;;;;5054887;28;20178;-65
2022/06/05 07:27:20;;;;;;;6.60;6.00;;;;;;;;;;5036458;28;20182;-65
2022/06/05 07:29:46;;;;;;;6.27;5.67;;;;;;;;;;5036200;28;20267;-64
2022/06/05 07:32:13;;;;;;;6.50;5.80;;;;;;;;;;5036407;28;20575;-65
2022/06/05 07:34:40;;;;;;;6.80;5.60;;;;;;;;;;5036390;28;20190;-65
2022/06/05 07:37:06;;;;;;;6.43;5.80;;;;;;;;;;5036210;28;20210;-64
2022/06/05 07:39:32;;;;;;;6.70;6.03;;;;;;;;;;5035379;28;20583;-65
2022/06/05 07:41:58;;;;;;;6.37;5.77;;;;;;;;;;5036254;28;20642;-65
2022/06/05 07:44:25;;;;;;;8.73;5.90;;;;;;;;;;5036507;28;20174;-65
2022/06/05 07:46:51;;;;;;;6.03;5.40;;;;;;;;;;5036293;28;20186;-65
2022/06/05 07:49:17;;;;;;;6.37;5.77;;;;;;;;;;5054167;28;20768;-65
2022/06/05 07:54:31;;;;;;;6.83;6.23;;;;;;;;;;5054066;28;20177;-65
2022/06/05 07:56:57;;;;;;;6.30;5.70;;;;;;;;;;5054401;28;20194;-65
2022/06/05 07:59:24;;;;;;;6.40;5.80;;;;;;;;;;5036143;28;20210;-65
2022/06/05 08:01:50;;;;;;;7.00;5.30;;;;;;;;;;5036094;28;20553;-65
2022/06/05 08:04:16;;;;;;;7.00;5.40;;;;;;;;;;5054049;28;20560;-68
2022/06/05 08:06:42;;;;;;;6.20;5.60;;;;;;;;;;5036100;28;20300;-65
2022/06/05 08:09:08;;;;;;;6.87;5.70;;;;;;;;;;5053882;28;20662;-65
2022/06/05 08:11:34;;;;;;;10.33;6.00;;;;;;;;;;5036260;28;20186;-68
2022/06/05 08:14:01;;;;;;;6.23;5.43;;;;;;;;;;5054038;28;20186;-66
2022/06/05 08:16:27;;;;;;;6.30;5.80;;;;;;;;;;5053331;28;20202;-65
2022/06/05 08:18:54;;;;;;;6.43;5.83;;;;;;;;;;5053440;28;20186;-66
2022/06/05 08:21:20;;;;;;;6.07;5.57;;;;;;;;;;5035916;28;20202;-67
2022/06/05 08:23:46;;;;;;;6.20;5.70;;;;;;;;;;5053651;28;20221;-65
2022/06/05 08:26:13;;;;;;;6.63;6.03;;;;;;;;;;5053145;28;20175;-65
2022/06/05 08:28:39;;;;;;;6.07;5.33;;;;;;;;;;5034963;28;20220;-65
2022/06/05 08:31:05;;;;;;;6.20;5.37;;;;;;;;;;5035352;28;20642;-65
2022/06/05 08:33:31;;;;;;;5.83;5.33;;;;;;;;;;5053679;28;20218;-66
2022/06/05 08:41:28;;;;;;;5.73;4.80;;;;;;;;;;5053756;28;20216;-67
2022/06/05 08:44:14;;;;;;;6.23;5.60;;;;;;;;;;5054122;28;20167;-66
2022/06/05 08:46:43;;;;;;;5.70;5.20;;;;;;;;;;5013252;28;20297;-65
2022/06/05 08:49:10;;;;;;;5.67;5.17;;;;;;;;;;5053860;28;20258;-66
2022/06/05 08:51:58;;;;;;;6.07;5.47;;;;;;;;;;5057115;28;20182;-67
2022/06/05 08:54:42;;;;;;;7.33;5.40;;;;;;;;;;5039343;28;20258;-67
2022/06/05 08:57:11;;;;;;;6.03;5.53;;;;;;;;;;5057248;28;20567;-67
2022/06/05 08:59:56;;;;;;;6.33;5.20;;;;;;;;;;5056917;28;20174;-68
2022/06/05 09:02:36;;;;;;;5.70;5.20;;;;;;;;;;5038819;28;20665;-67
2022/06/05 09:05:06;;;;;;;5.87;5.37;;;;;;;;;;5039016;28;20619;-66
2022/06/05 09:07:34;;;;;;;5.73;5.23;;;;;;;;;;5039186;28;20202;-67
2022/06/05 09:10:06;;;;;;;5.43;4.93;;;;;;;;;;5056898;28;20186;-67
2022/06/05 09:12:37;;;;;;;5.90;5.40;;;;;;;;;;5057983;28;20182;-68
2022/06/05 09:15:13;;;;;;;5.80;5.30;;;;;;;;;;5058529;28;20186;-68
2022/06/05 09:17:41;;;;;;;5.67;5.17;;;;;;;;;;5058730;28;20206;-68
2022/06/05 09:20:13;;;;;;;7.20;5.13;;;;;;;;;;5059363;28;20199;-70
2022/06/05 09:22:50;;;;;;;7.10;6.30;;;;;;;;;;5040091;28;20236;-67
2022/06/05 09:25:39;;;;;;;6.57;6.00;;;;;;;;;;5056763;28;20514;-68
2022/06/05 09:28:08;;;;;;;6.03;5.43;;;;;;;;;;5056574;28;20190;-68
2022/06/05 09:30:53;;;;;;;5.40;4.93;;;;;;;;;;5056737;28;20182;-67
2022/06/05 09:33:31;;;;;;;6.40;5.90;;;;;;;;;;5038819;28;20178;-68
2022/06/05 09:35:59;;;;;;;6.53;5.93;;;;;;;;;;5038265;28;20610;-68
2022/06/05 09:38:28;;;;;;;7.37;6.67;;;;;;;;;;5056264;28;20193;-66
2022/06/05 09:41:04;;;;;;;6.80;6.13;;;;;;;;;;5056694;28;20586;-67
2022/06/05 09:43:39;;;;;;;7.37;6.63;;;;;;;;;;5038288;28;20209;-68
2022/06/05 09:46:23;;;;;;;7.53;6.77;;;;;;;;;;5056373;28;20624;-68
2022/06/05 09:49:03;;;;;;;9.80;6.60;;;;;;;;;;5038097;28;20179;-67
2022/06/05 09:51:29;;;;;;;8.93;6.87;;;;;;;;;;5056288;28;20175;-68
2022/06/05 09:53:58;;;;;;;10.40;6.83;;;;;;;;;;5056079;28;20178;-69
2022/06/05 09:56:35;;;;;;;9.33;7.40;;;;;;;;;;5038049;28;20214;-70
2022/06/05 09:59:16;;;;;;;9.23;6.93;;;;;;;;;;5056071;28;20181;-66
2022/06/05 10:01:54;;;;;;;7.27;6.53;;;;;;;;;;5054806;28;20182;-68
2022/06/05 10:04:21;;;;;;;8.18;7.38;;;;;;;;;;5054893;28;20381;-68
2022/06/05 10:07:03;;;;;;;6.13;5.63;;;;;;;;;;5055579;28;20190;-68
2022/06/05 10:09:30;;;;;;;7.23;5.93;;;;;;;;;;5055955;28;20627;-68
2022/06/05 10:11:57;;;;;;;6.23;5.73;;;;;;;;;;5037795;28;20248;-68
2022/06/05 10:14:26;;;;;;;6.10;5.50;;;;;;;;;;5055906;28;20198;-68
2022/06/05 10:17:09;;;;;;;5.60;5.10;;;;;;;;;;5055656;28;20206;-67
2022/06/05 10:19:45;;;;;;;14.40;5.77;;;;;;;;;;5055526;28;20165;-69
2022/06/05 10:22:24;;;;;;;6.23;5.67;;;;;;;;;;5037575;28;20181;-69
2022/06/05 10:24:50;;;;;;;6.93;6.23;;;;;;;;;;5037629;28;20232;-65
2022/06/05 10:27:16;;;;;;;6.67;6.07;;;;;;;;;;5037410;28;20744;-66
2022/06/05 10:29:46;;;;;;;8.80;6.67;;;;;;;;;;5055350;28;20170;-66
2022/06/05 10:32:28;;;;;;;8.20;7.50;;;;;;;;;;5055932;28;20178;-65
2022/06/05 10:34:59;;;;;;;7.90;7.20;;;;;;;;;;5037647;28;20304;-66
2022/06/05 10:37:41;;;;;;;9.57;8.67;;;;;;;;;;5055317;28;20214;-66
2022/06/05 10:40:13;;;;;;;8.97;7.93;;;;;;;;;;5055409;28;20179;-66
2022/06/05 10:42:59;;;;;;;9.53;8.63;;;;;;;;;;5056793;28;20232;-66
2022/06/05 10:45:54;;;;;;;10.57;9.57;;;;;;;;;;5055152;28;20170;-67
2022/06/05 10:48:29;;;;;;;11.73;10.53;;;;;;;;;;5038368;28;20225;-66
2022/06/05 10:51:02;;;;;;;11.80;10.70;;;;;;;;;;5037398;28;20261;-67
2022/06/05 10:53:46;;;;;;;12.43;11.23;;;;;;;;;;5056187;28;20669;-67
2022/06/05 10:56:33;;;;;;;12.37;11.27;;;;;;;;;;5057500;28;20202;-67
2022/06/05 10:59:05;;;;;;;11.97;10.77;;;;;;;;;;5038443;28;20190;-67
2022/06/05 11:01:35;;;;;;;13.17;11.47;;;;;;;;;;5055840;28;20230;-67
2022/06/05 11:04:01;;;;;;;13.37;12.07;;;;;;;;;;5037122;28;20179;-67
2022/06/05 11:06:43;;;;;;;12.60;11.40;;;;;;;;;;5055087;28;20194;-67
2022/06/05 11:09:27;;;;;;;13.30;12.03;;;;;;;;;;5055069;28;20167;-66
2022/06/05 11:14:58;;;;;;;12.33;11.00;;;;;;;;;;5054638;28;20536;-70
2022/06/05 11:17:34;;;;;;;12.03;10.93;;;;;;;;;;5036686;28;20213;-66
2022/06/05 11:20:07;;;;;;;12.17;10.97;;;;;;;;;;5036545;28;20186;-66
2022/06/05 11:22:34;;;;;;;12.37;10.87;;;;;;;;;;5055013;28;20166;-66
2022/06/05 11:25:19;;;;;;;12.47;11.17;;;;;;;;;;5036551;28;20182;-66
2022/06/05 11:27:54;;;;;;;11.43;10.23;;;;;;;;;;5054431;28;20696;-68
2022/06/05 11:30:20;;;;;;;11.43;10.23;;;;;;;;;;5054296;28;20190;-67
2022/06/05 11:33:06;;;;;;;10.80;9.80;;;;;;;;;;5054457;28;20297;-67
2022/06/05 11:35:35;;;;;;;9.83;9.00;;;;;;;;;;5036226;28;20193;-67
2022/06/05 11:38:19;;;;;;;10.53;9.60;;;;;;;;;;5054116;28;20214;-68
2022/06/05 11:40:50;;;;;;;10.07;9.13;;;;;;;;;;5054363;28;20196;-67
2022/06/05 11:43:16;;;;;;;9.27;8.37;;;;;;;;;;5053955;28;20181;-66
2022/06/05 11:45:42;;;;;;;9.40;8.60;;;;;;;;;;5035890;28;20186;-67
2022/06/05 11:48:12;;;;;;;10.20;9.20;;;;;;;;;;5035668;28;20202;-67
2022/06/05 11:50:47;;;;;;;11.67;9.70;;;;;;;;;;5035968;28;20543;-67
2022/06/05 11:53:16;;;;;;;14.20;11.60;;;;;;;;;;5053880;28;20150;-67
2022/06/05 11:55:50;;;;;;;16.87;12.53;;;;;;;;;;5053771;28;20175;-66
2022/06/05 11:58:50;;;;;;;19.23;13.50;;;;;;;;;;5053805;28;20569;-67
2022/06/05 12:01:18;;;;;;;15.53;12.17;;;;;;;;;;5000139;28;20186;-67
2022/06/05 12:03:49;;;;;;;17.27;12.37;;;;;;;;;;5053881;28;20631;-67
2022/06/05 12:06:26;;;;;;;17.37;12.53;;;;;;;;;;5053893;28;20181;-67
2022/06/05 12:08:55;;;;;;;14.20;11.57;;;;;;;;;;5053754;28;20212;-67
2022/06/05 12:11:26;;;;;;;12.77;10.63;;;;;;;;;;5053965;28;20181;-67
2022/06/05 12:14:04;;;;;;;13.90;11.13;;;;;;;;;;5053529;28;20181;-67
2022/06/05 12:16:41;;;;;;;12.27;10.20;;;;;;;;;;5053373;28;20206;-67
2022/06/05 12:19:26;;;;;;;10.77;8.73;;;;;;;;;;5035481;28;20650;-67
2022/06/05 12:21:52;;;;;;;13.00;8.90;;;;;;;;;;5053282;28;20186;-66
2022/06/05 12:24:41;;;;;;;10.87;8.23;;;;;;;;;;5054421;28;20174;-67
2022/06/05 12:27:12;;;;;;;9.47;8.33;;;;;;;;;;5060155;28;20297;-67
2022/06/05 12:29:44;;;;;;;12.80;9.13;;;;;;;;;;5060212;28;20642;-67
2022/06/05 12:32:31;;;;;;;8.53;6.50;;;;;;;;;;5060132;28;20186;-67
2022/06/05 12:35:05;;;;;;;7.03;6.33;;;;;;;;;;5042107;28;20538;-66
2022/06/05 12:37:37;;;;;;;8.43;6.90;;;;;;;;;;5060068;28;20697;-67
2022/06/05 12:40:04;;;;;;;8.40;7.00;;;;;;;;;;5042534;28;20174;-67
2022/06/05 12:42:33;;;;;;;8.87;7.40;;;;;;;;;;5060349;28;20178;-67
2022/06/05 12:45:06;;;;;;;8.90;7.63;;;;;;;;;;5060267;28;20257;-68
2022/06/05 12:47:50;;;;;;;7.50;6.80;;;;;;;;;;5060235;28;20202;-67
2022/06/05 12:50:42;;;;;;;7.60;6.90;;;;;;;;;;5041768;28;20193;-67
2022/06/05 12:53:13;;;;;;;7.10;6.40;;;;;;;;;;5012184;28;20194;-67
2022/06/05 12:56:07;;;;;;;8.90;6.50;;;;;;;;;;5060524;28;20202;-66
2022/06/05 12:58:51;;;;;;;7.13;6.23;;;;;;;;;;5057020;28;20189;-66
2022/06/05 13:01:40;;;;;;;6.20;5.70;;;;;;;;;;5059824;28;20180;-67
2022/06/05 13:04:15;;;;;;;6.33;5.73;;;;;;;;;;5049388;28;20241;-67
2022/06/05 13:06:44;;;;;;;6.40;5.83;;;;;;;;;;5042026;28;20201;-66
2022/06/05 13:09:28;;;;;;;7.00;6.40;;;;;;;;;;5041688;28;20178;-67
2022/06/05 13:11:57;;;;;;;7.17;6.47;;;;;;;;;;5041745;28;20673;-68
2022/06/05 13:14:42;;;;;;;7.00;6.40;;;;;;;;;;5060631;28;20583;-67
2022/06/05 13:17:13;;;;;;;7.77;7.07;;;;;;;;;;5041580;28;20632;-67
2022/06/05 13:20:05;;;;;;;8.40;7.70;;;;;;;;;;5060209;28;20216;-67
2022/06/05 13:22:39;;;;;;;8.87;7.43;;;;;;;;;;5025652;28;20191;-67
2022/06/05 13:25:23;;;;;;;8.03;7.33;;;;;;;;;;5059869;28;20668;-68
2022/06/05 13:28:02;;;;;;;7.60;7.00;;;;;;;;;;5041332;28;20616;-67
2022/06/05 13:30:29;;;;;;;7.47;6.87;;;;;;;;;;5059761;28;20214;-67
2022/06/05 13:33:14;;;;;;;6.83;6.13;;;;;;;;;;5059472;28;20502;-67
2022/06/05 13:35:48;;;;;;;6.70;6.10;;;;;;;;;;5058951;28;20178;-67
2022/06/05 13:38:25;;;;;;;7.27;6.63;;;;;;;;;;5056172;28;20232;-66
2022/06/05 13:41:15;;;;;;;8.53;6.97;;;;;;;;;;5056616;28;20181;-70
2022/06/05 13:43:41;;;;;;;7.90;6.60;;;;;;;;;;5056103;28;20185;-68
2022/06/05 13:46:16;;;;;;;7.23;6.63;;;;;;;;;;5056064;28;20185;-67
2022/06/05 13:49:04;;;;;;;8.33;7.53;;;;;;;;;;5038353;28;20170;-68
2022/06/05 13:51:32;;;;;;;7.80;7.20;;;;;;;;;;5056380;28;20253;-68
2022/06/05 13:54:10;;;;;;;7.87;7.17;;;;;;;;;;5038218;28;20190;-68
2022/06/05 13:56:36;;;;;;;8.83;8.03;;;;;;;;;;5056183;28;20293;-67
2022/06/05 13:59:06;;;;;;;8.40;7.70;;;;;;;;;;5056248;28;20209;-66
2022/06/05 14:01:34;;;;;;;8.57;7.77;;;;;;;;;;5056832;28;20179;-68
2022/06/05 14:04:15;;;;;;;8.10;7.40;;;;;;;;;;5037909;28;20187;-67
2022/06/05 14:06:45;;;;;;;6.80;6.20;;;;;;;;;;5037617;28;20206;-68
2022/06/05 14:09:28;;;;;;;8.60;7.70;;;;;;;;;;5055645;28;20179;-68
2022/06/05 14:11:55;;;;;;;7.40;6.73;;;;;;;;;;5055882;28;20170;-67
2022/06/05 14:14:35;;;;;;;8.03;7.23;;;;;;;;;;5037633;28;20183;-67
2022/06/05 14:17:03;;;;;;;8.73;7.93;;;;;;;;;;5055604;28;20242;-67
2022/06/05 14:19:30;;;;;;;7.40;6.80;;;;;;;;;;5055385;28;20258;-67
2022/06/05 14:22:00;;;;;;;7.70;7.00;;;;;;;;;;5055885;28;20175;-67
2022/06/05 14:24:29;;;;;;;8.30;7.50;;;;;;;;;;5056034;28;20525;-69
2022/06/05 14:26:56;;;;;;;7.83;7.13;;;;;;;;;;5055750;28;20198;-67
2022/06/05 14:29:23;;;;;;;7.90;7.20;;;;;;;;;;5037550;28;20178;-67
2022/06/05 14:31:57;;;;;;;9.20;8.30;;;;;;;;;;5037570;28;20183;-67
2022/06/05 14:34:30;;;;;;;8.00;7.10;;;;;;;;;;5055501;28;20201;-68
2022/06/05 14:37:05;;;;;;;8.10;7.40;;;;;;;;;;5037113;28;20276;-67
2022/06/05 14:39:32;;;;;;;7.60;6.97;;;;;;;;;;5055240;28;20170;-68
2022/06/05 14:41:58;;;;;;;8.03;7.33;;;;;;;;;;5037187;28;20643;-67
2022/06/05 14:44:31;;;;;;;8.77;7.97;;;;;;;;;;5037133;28;20181;-67
2022/06/05 14:47:03;;;;;;;8.33;7.53;;;;;;;;;;5036967;28;20198;-66
2022/06/05 14:49:29;;;;;;;8.67;7.80;;;;;;;;;;5054573;28;20257;-67
2022/06/05 14:52:11;;;;;;;9.20;8.30;;;;;;;;;;5055316;28;20214;-67
2022/06/05 14:57:53;;;;;;;14.83;8.90;;;;;;;;;;5055074;28;20284;-68
2022/06/05 15:00:21;;;;;;;9.13;7.90;;;;;;;;;;5055024;28;20186;-67
2022/06/05 15:03:06;;;;;;;9.17;8.27;;;;;;;;;;5037280;28;20175;-67
2022/06/05 15:05:33;;;;;;;9.57;7.60;;;;;;;;;;5055383;28;20181;-67
2022/06/05 15:08:04;;;;;;;8.77;7.87;;;;;;;;;;5054919;28;20194;-68
2022/06/05 15:10:33;;;;;;;7.77;7.07;;;;;;;;;;5054821;28;20169;-67
2022/06/05 15:13:10;;;;;;;8.07;7.10;;;;;;;;;;5054771;28;20254;-70
2022/06/05 15:15:37;;;;;;;7.30;6.60;;;;;;;;;;5054740;28;20155;-68
2022/06/05 15:18:03;;;;;;;7.80;6.47;;;;;;;;;;5054266;28;20246;-66
2022/06/05 15:20:44;;;;;;;6.87;6.27;;;;;;;;;;5054333;28;20650;-69
2022/06/05 15:23:23;;;;;;;7.13;6.43;;;;;;;;;;5054724;28;20179;-67